Spasatel Demidov — UBAO9 — position and weather

sailwx.info

Track history (hours):
 
Tides and Currents Weather Stations Pressure Air Temp Water Temp Dewpoint Dewpoint Depression Visibility Wind Speed Wind Dir Waves Ship Positions

Spasatel Demidov

Last reported at 2018-Apr-26 19:21 UTC. Time now 2018-Apr-26 21:19 UTC.
Position N 49°60' W 001°45'.

Length 73 m; draft 4.9 m.

Type: SAR. MMSI: 273387420.

Date/timePositionNaut miles runAvg speedWind from/ knotsBaromVisibWave heightAir tempDewpointWater temp
2018-Apr-26 19:21N 49°60' W 001°45'  
2018-Apr-23 17:56N 39°37' W 009°45'16 9.9
2018-Apr-23 16:19N 39°22' W 009°49'310.1
2018-Apr-23 16:00N 39°18' W 009°50'5 9.9
2018-Apr-23 15:30N 39°13' W 009°50'510.0
2018-Apr-23 15:00N 39°08' W 009°50'510.0
2018-Apr-23 14:30N 39°03' W 009°50'510.1
2018-Apr-23 14:00N 38°58' W 009°50'510.2
2018-Apr-23 13:30N 38°53' W 009°50'510.1
2018-Apr-23 13:00N 38°48' W 009°50'510.3
2018-Apr-23 12:30N 38°43' W 009°51'510.3
2018-Apr-23 12:00N 38°38' W 009°49'510.6
2018-Apr-23 11:30N 38°33' W 009°48'510.5
2018-Apr-23 11:00N 38°28' W 009°46'610.8
2018-Apr-23 10:27N 38°22' W 009°44'511.1
2018-Apr-23 10:00N 38°17' W 009°43'611.2
2018-Apr-23 09:30N 38°12' W 009°41'611.1
2018-Apr-23 09:00N 38°06' W 009°40'510.8
2018-Apr-23 08:30N 38°01' W 009°38'510.5
2018-Apr-23 08:00N 37°56' W 009°37'510.9
2018-Apr-23 07:30N 37°51' W 009°35'611.1
2018-Apr-23 06:59N 37°45' W 009°33'511.3
2018-Apr-23 06:30N 37°40' W 009°32'1011.2
2018-Apr-23 05:34N 37°30' W 009°29'111.0
2018-Apr-23 05:30N 37°29' W 009°29'710.8
2018-Apr-23 04:49N 37°22' W 009°27'710.4
2018-Apr-23 04:08N 37°15' W 009°24'202 9.8
2018-Apr-22 07:28N 35°59' W 005°31'4 8.1
2018-Apr-22 07:00N 36°00' W 005°27'4 7.7
2018-Apr-22 06:30N 36°02' W 005°22'3 7.0
2018-Apr-22 06:00N 36°02' W 005°18'3 6.6
2018-Apr-22 05:30N 36°03' W 005°14'  
Track history (hours):
 
Tides and Currents Weather Stations Pressure Air Temp Water Temp Dewpoint Dewpoint Depression Visibility Wind Speed Wind Dir Waves Ship Positions

Spasatel Demidov

Last reported at 2018-Apr-26 19:21 UTC. Time now 2018-Apr-26 21:19 UTC.
Position N 49°60' W 001°45'.

Length 73 m; draft 4.9 m.

Type: SAR. MMSI: 273387420.

Date/timePositionNaut miles runAvg speedWind from/ knotsBaromVisibWave heightAir tempDewpointWater temp
2018-Apr-26 19:21N 49°60' W 001°45'  
2018-Apr-23 17:56N 39°37' W 009°45'16 9.9
2018-Apr-23 16:19N 39°22' W 009°49'310.1
2018-Apr-23 16:00N 39°18' W 009°50'5 9.9
2018-Apr-23 15:30N 39°13' W 009°50'510.0
2018-Apr-23 15:00N 39°08' W 009°50'510.0
2018-Apr-23 14:30N 39°03' W 009°50'510.1
2018-Apr-23 14:00N 38°58' W 009°50'510.2
2018-Apr-23 13:30N 38°53' W 009°50'510.1
2018-Apr-23 13:00N 38°48' W 009°50'510.3
2018-Apr-23 12:30N 38°43' W 009°51'510.3
2018-Apr-23 12:00N 38°38' W 009°49'510.6
2018-Apr-23 11:30N 38°33' W 009°48'510.5
2018-Apr-23 11:00N 38°28' W 009°46'610.8
2018-Apr-23 10:27N 38°22' W 009°44'511.1
2018-Apr-23 10:00N 38°17' W 009°43'611.2
2018-Apr-23 09:30N 38°12' W 009°41'611.1
2018-Apr-23 09:00N 38°06' W 009°40'510.8
2018-Apr-23 08:30N 38°01' W 009°38'510.5
2018-Apr-23 08:00N 37°56' W 009°37'510.9
2018-Apr-23 07:30N 37°51' W 009°35'611.1
2018-Apr-23 06:59N 37°45' W 009°33'511.3
2018-Apr-23 06:30N 37°40' W 009°32'1011.2
2018-Apr-23 05:34N 37°30' W 009°29'111.0
2018-Apr-23 05:30N 37°29' W 009°29'710.8
2018-Apr-23 04:49N 37°22' W 009°27'710.4
2018-Apr-23 04:08N 37°15' W 009°24'202 9.8
2018-Apr-22 07:28N 35°59' W 005°31'4 8.1
2018-Apr-22 07:00N 36°00' W 005°27'4 7.7
2018-Apr-22 06:30N 36°02' W 005°22'3 7.0
2018-Apr-22 06:00N 36°02' W 005°18'3 6.6
2018-Apr-22 05:30N 36°03' W 005°14'  

Dump ship's entire track history